Henderson, NC

7:03 PM EDT on April 19, 2015 (GMT -0400)
Person County | | Change Station
CLOSE
Current Station
Airport
Location: Roxboro,
Elevation: 610 ft
Nearby Weather Stations

Elev 610 ft 36.28 °N, 78.98 °W | Updated 8 minutes ago

Rain
Rain
61 °F
Feels Like 61 °F
N
9
Wind Variable Wind from ESE
Gusts 17 mph

Today
High -- | Low -- °F
--% Chance of Precip.
Yesterday
High -- | Low -- °F
Precip. -- in
6:35 AM 7:50 PM
New Moon, 2% visible
Pressure 29.87 in
Visibility 4.0 miles
Clouds Overcast 500 ft
Dew Point 61 °F
Humidity 100%
Rainfall 0.37 in
Snow Depth Not available.
UV 0 out of 12
Pollen 2.10 out of 12
Air Quality Not available.
Flu Activity Sporadic
METAR KTDF 192255Z AUTO 11008G15KT 4SM RA OVC005 16/16 A2987 RMK AO2 P0012

More Conditions Fewer Conditions

Pressure 29.87 in
Visibility 4.0 miles
Clouds Overcast 500 ft
Dew Point 61 °F
Humidity 100%
Rainfall 0.37 in
Snow Depth Not available.
UV 0 out of 12
Pollen 2.10 out of 12
Air Quality Not available.
Flu Activity Sporadic
METAR KTDF 192255Z AUTO 11008G15KT 4SM RA OVC005 16/16 A2987 RMK AO2 P0012

More Conditions Fewer Conditions

10-Day Weather Forecast

Almanac

Astronomy

Apr. 19, 2015 Rise Set
Actual Time
Civil Twilight
Nautical Twilight
Astronomical Twilight
Moon
Length of Visible Light
Length of Day
Tomorrow will be .
, % of the Moon is Illuminated

Today's Extremes

State Highs State Lows

Community

WunderPhotos

Upload Photos

1,815,012 photos uploaded!

WunderBlogs® & News

Nearby

Air Quality

  Air Quality AQ Index Pollutant
Not available.

Snow Depth

Station Depth Elevation

Earthquake Activity

City Distance Mag. Time & Date
Minimum magnitude displayed is 2.5.

Coastal Water Temperatures

Place Temperature

Stations

Nearby Weather Stations

Station Location Temp. Windchill Dew Point Humidity Wind Precip. Elev Updated Type